createdAt,value
2019-05-18T00:00:14.746Z,63.42
2019-05-18T00:02:44.751Z,63.61
2019-05-18T00:05:14.873Z,63.66
2019-05-18T00:07:44.982Z,63.80
2019-05-18T00:10:14.952Z,64.29
2019-05-18T00:12:45.874Z,64.61
2019-05-18T00:15:15.921Z,64.51
2019-05-18T00:17:45.841Z,64.41
2019-05-18T00:20:16.251Z,64.14
2019-05-18T00:22:46.335Z,64.04
2019-05-18T00:25:16.224Z,64.01
2019-05-18T00:27:46.266Z,64.03
2019-05-18T00:30:16.689Z,64.44
2019-05-18T00:32:46.762Z,64.67
2019-05-18T00:35:16.877Z,64.41
2019-05-18T00:37:47.075Z,64.35
2019-05-18T00:40:17.058Z,64.52
2019-05-18T00:42:47.095Z,64.54
2019-05-18T00:45:17.846Z,64.41
2019-05-18T00:47:49.060Z,64.33
2019-05-18T00:50:19.229Z,64.33
2019-05-18T00:52:50.525Z,64.36
2019-05-18T00:55:20.795Z,64.43
2019-05-18T00:57:50.687Z,64.92
2019-05-18T01:00:20.836Z,65.24
2019-05-18T01:02:54.801Z,65.57
2019-05-18T01:05:25.333Z,65.74
2019-05-18T01:07:55.253Z,65.70
2019-05-18T01:10:25.169Z,65.69
2019-05-18T01:12:55.291Z,65.47
2019-05-18T01:15:27.559Z,65.37
2019-05-18T01:18:01.445Z,65.28
2019-05-18T01:20:29.869Z,65.50
2019-05-18T01:22:59.781Z,65.21
2019-05-18T01:25:29.693Z,65.02
2019-05-18T01:27:59.881Z,64.94
2019-05-18T01:30:29.919Z,65.38
2019-05-18T01:32:59.849Z,65.00
2019-05-18T01:35:30.097Z,65.14
2019-05-18T01:38:02.837Z,65.46
2019-05-18T01:40:32.721Z,65.18
2019-05-18T01:43:02.656Z,65.05
2019-05-18T01:45:32.653Z,65.02
2019-05-18T01:48:13.216Z,64.98
2019-05-18T01:50:34.259Z,65.47
2019-05-18T01:53:04.392Z,65.42
2019-05-18T01:55:34.385Z,65.49
2019-05-18T01:58:04.771Z,65.81
2019-05-18T02:00:35.284Z,65.96
2019-05-18T02:03:05.277Z,66.20
2019-05-18T02:05:35.579Z,66.34
2019-05-18T02:08:07.644Z,66.08
2019-05-18T02:10:37.911Z,66.27
2019-05-18T02:13:07.765Z,66.22
2019-05-18T02:15:37.804Z,66.13
2019-05-18T02:18:07.719Z,66.13
2019-05-18T02:20:37.771Z,66.17
2019-05-18T02:23:08.147Z,66.24
2019-05-18T02:25:38.095Z,66.40
2019-05-18T02:28:08.036Z,66.67
2019-05-18T02:30:38.031Z,66.68
2019-05-18T02:33:08.230Z,66.63
2019-05-18T02:35:38.688Z,66.62
2019-05-18T02:38:17.930Z,66.50
2019-05-18T02:40:48.694Z,66.41
2019-05-18T02:43:19.090Z,66.56
2019-05-18T02:45:49.067Z,66.79
2019-05-18T02:48:19.230Z,66.85
2019-05-18T02:50:49.424Z,66.92
2019-05-18T02:53:19.891Z,66.50
2019-05-18T02:55:50.058Z,66.36
2019-05-18T02:58:20.170Z,66.48
2019-05-18T03:00:50.992Z,66.84
2019-05-18T03:03:21.821Z,66.86
2019-05-18T03:05:51.618Z,66.77
2019-05-18T03:08:21.624Z,66.50
2019-05-18T03:10:52.949Z,66.43
2019-05-18T03:13:23.064Z,66.21
2019-05-18T03:15:53.249Z,66.18
2019-05-18T03:18:23.065Z,66.12
2019-05-18T03:20:53.125Z,66.54
2019-05-18T03:23:23.073Z,67.00
2019-05-18T03:25:53.042Z,67.03
2019-05-18T03:28:22.910Z,66.99
2019-05-18T03:30:53.036Z,66.96
2019-05-18T03:33:29.062Z,67.25
2019-05-18T03:35:55.017Z,67.30
2019-05-18T03:38:24.926Z,67.24
2019-05-18T03:40:55.359Z,67.15
2019-05-18T03:43:25.124Z,67.26
2019-05-18T03:45:55.935Z,67.36
2019-05-18T03:48:26.015Z,67.34
2019-05-18T03:50:56.339Z,67.07
2019-05-18T03:53:26.448Z,67.07
2019-05-18T03:55:56.225Z,66.96
2019-05-18T03:58:26.083Z,66.99
2019-05-18T04:00:56.141Z,66.92
2019-05-18T04:03:28.824Z,66.96
2019-05-18T04:05:58.732Z,67.29
2019-05-18T04:08:28.749Z,67.14
2019-05-18T04:10:58.728Z,66.81
2019-05-18T04:13:29.077Z,66.68
2019-05-18T04:15:58.957Z,66.92
2019-05-18T04:18:28.834Z,66.92
2019-05-18T04:21:01.769Z,66.84
2019-05-18T04:23:31.639Z,67.06
2019-05-18T04:26:01.867Z,66.90
2019-05-18T04:28:32.467Z,66.77
2019-05-18T04:31:02.368Z,66.68
2019-05-18T04:33:32.156Z,66.73
2019-05-18T04:36:02.279Z,66.63
2019-05-18T04:38:32.421Z,66.63
2019-05-18T04:41:02.984Z,66.84
2019-05-18T04:43:32.851Z,66.48
2019-05-18T04:46:02.744Z,66.28
2019-05-18T04:48:32.806Z,66.50
2019-05-18T04:51:02.614Z,66.46
2019-05-18T04:53:33.545Z,66.56
2019-05-18T04:56:04.473Z,66.59
2019-05-18T04:58:34.300Z,66.47
2019-05-18T05:01:04.173Z,66.29
2019-05-18T05:03:34.316Z,66.21
2019-05-18T05:06:04.287Z,64.32
2019-05-18T05:08:34.075Z,61.27
2019-05-18T05:11:03.991Z,59.31
2019-05-18T05:13:34.052Z,58.30
2019-05-18T05:16:04.864Z,57.42
2019-05-18T05:18:35.677Z,56.77
2019-05-18T05:21:05.552Z,56.29
2019-05-18T05:23:35.423Z,55.88
2019-05-18T05:26:05.852Z,55.95
2019-05-18T05:28:35.706Z,55.55
2019-05-18T05:31:05.895Z,55.29
2019-05-18T05:33:35.743Z,54.83
2019-05-18T05:36:05.736Z,53.75
2019-05-18T05:38:35.963Z,53.14
2019-05-18T05:41:07.552Z,52.26
2019-05-18T05:43:37.433Z,51.42
2019-05-18T05:46:08.042Z,50.72
2019-05-18T05:48:38.979Z,49.84
2019-05-18T05:51:08.893Z,50.09
2019-05-18T05:53:38.881Z,50.48
2019-05-18T05:56:08.751Z,50.27
2019-05-18T05:58:38.786Z,50.29
2019-05-18T06:01:08.736Z,49.98
2019-05-18T06:03:38.926Z,49.29
2019-05-18T06:06:08.783Z,48.17
2019-05-18T06:08:38.653Z,47.56
2019-05-18T06:11:08.525Z,46.90
2019-05-18T06:13:38.538Z,46.93
2019-05-18T06:16:08.475Z,47.48
2019-05-18T06:18:38.372Z,47.93
2019-05-18T06:21:08.869Z,48.41
2019-05-18T06:23:39.185Z,49.44
2019-05-18T06:26:09.067Z,49.95
2019-05-18T06:31:52.211Z,50.13
2019-05-18T06:34:25.486Z,50.81
2019-05-18T06:36:55.957Z,52.13
2019-05-18T06:39:26.769Z,53.54
2019-05-18T06:41:56.794Z,53.91
2019-05-18T06:44:26.924Z,53.62
2019-05-18T06:46:56.845Z,53.92
2019-05-18T06:49:26.845Z,54.88
2019-05-18T06:51:56.783Z,55.69
2019-05-18T06:54:28.335Z,55.88
2019-05-18T06:57:01.422Z,55.88
2019-05-18T06:59:32.787Z,55.81
2019-05-18T07:02:03.174Z,55.85
2019-05-18T07:04:33.254Z,55.95
2019-05-18T07:07:03.418Z,55.98
2019-05-18T07:09:33.509Z,56.04
2019-05-18T07:12:03.851Z,56.18
2019-05-18T07:14:34.127Z,56.21
2019-05-18T07:17:04.083Z,56.25
2019-05-18T07:19:34.012Z,56.34
2019-05-18T07:22:05.540Z,56.49
2019-05-18T07:24:35.400Z,56.76
2019-05-18T07:27:05.418Z,57.01
2019-05-18T07:29:35.433Z,57.25
2019-05-18T07:32:05.475Z,57.50
2019-05-18T07:34:35.777Z,57.53
2019-05-18T07:37:08.558Z,57.55
2019-05-18T07:39:38.604Z,57.44
2019-05-18T07:42:33.761Z,57.60
2019-05-18T07:45:23.657Z,57.44
2019-05-18T07:47:53.943Z,57.39
2019-05-18T07:50:23.813Z,57.33
2019-05-18T07:52:53.680Z,57.11
2019-05-18T07:55:23.690Z,57.26
2019-05-18T07:57:53.590Z,57.15
2019-05-18T08:00:23.630Z,57.33
2019-05-18T08:02:54.029Z,57.48
2019-05-18T08:05:24.077Z,57.43
2019-05-18T08:07:54.463Z,57.31
2019-05-18T08:10:38.873Z,57.19
2019-05-18T08:13:09.033Z,57.16
2019-05-18T08:15:40.213Z,57.46
2019-05-18T08:18:10.290Z,57.26
2019-05-18T08:20:40.253Z,57.05
2019-05-18T08:23:10.475Z,56.92
2019-05-18T08:25:40.309Z,56.62
2019-05-18T08:28:10.227Z,56.49
2019-05-18T08:30:40.085Z,56.22
2019-05-18T08:33:10.355Z,55.94
2019-05-18T08:35:40.255Z,55.91
2019-05-18T08:38:10.287Z,56.01
2019-05-18T08:40:55.968Z,55.65
2019-05-18T08:43:26.118Z,55.64
2019-05-18T08:45:56.401Z,55.78
2019-05-18T08:48:26.285Z,55.18
2019-05-18T08:50:56.242Z,54.86
2019-05-18T08:53:26.093Z,54.67
2019-05-18T08:55:56.098Z,54.40
2019-05-18T08:58:25.941Z,54.38
2019-05-18T09:00:55.804Z,54.65
2019-05-18T09:03:25.724Z,54.71
2019-05-18T09:05:55.626Z,54.60
2019-05-18T09:08:25.486Z,54.72
2019-05-18T09:10:55.621Z,54.40
2019-05-18T09:13:25.392Z,54.26
2019-05-18T09:15:55.277Z,54.42
2019-05-18T09:18:25.174Z,54.51
2019-05-18T09:20:55.450Z,54.70
2019-05-18T09:23:25.579Z,54.13
2019-05-18T09:25:55.400Z,54.37
2019-05-18T09:28:25.255Z,54.31
2019-05-18T09:30:55.481Z,54.15
2019-05-18T09:33:25.287Z,54.01
2019-05-18T09:35:55.560Z,53.99
2019-05-18T09:38:25.420Z,54.15
2019-05-18T09:40:55.199Z,54.30
2019-05-18T09:43:25.201Z,54.15
2019-05-18T09:45:55.093Z,53.95
2019-05-18T09:48:24.960Z,53.89
2019-05-18T09:50:54.803Z,53.64
2019-05-18T09:53:24.663Z,53.39
2019-05-18T09:55:55.568Z,53.79
2019-05-18T09:58:25.728Z,54.35
2019-05-18T10:00:55.791Z,54.14
2019-05-18T10:03:25.860Z,54.22
2019-05-18T10:05:56.374Z,54.30
2019-05-18T10:08:26.669Z,54.12
2019-05-18T10:10:57.062Z,54.39
2019-05-18T10:13:27.371Z,54.13
2019-05-18T10:15:57.184Z,53.91
2019-05-18T10:18:27.176Z,53.39
2019-05-18T10:20:56.994Z,53.24
2019-05-18T10:23:27.089Z,52.95
2019-05-18T10:25:56.922Z,52.87
2019-05-18T10:28:27.394Z,52.77
2019-05-18T10:30:57.647Z,51.96
2019-05-18T10:33:27.493Z,52.33
2019-05-18T10:35:57.424Z,52.51
2019-05-18T10:38:27.231Z,51.73
2019-05-18T10:40:57.147Z,51.52
2019-05-18T10:43:27.220Z,51.12
2019-05-18T10:45:57.608Z,51.74
2019-05-18T10:48:27.712Z,51.03
2019-05-18T10:50:57.539Z,51.17
2019-05-18T10:53:29.079Z,51.10
2019-05-18T10:55:59.179Z,51.15
2019-05-18T10:58:29.080Z,51.23
2019-05-18T11:00:59.190Z,50.70
2019-05-18T11:03:29.210Z,50.45
2019-05-18T11:05:59.020Z,50.03
2019-05-18T11:08:29.181Z,50.28
2019-05-18T11:10:59.327Z,50.48
2019-05-18T11:13:29.192Z,49.99
2019-05-18T11:15:59.700Z,49.85
2019-05-18T11:18:30.412Z,49.67
2019-05-18T11:21:17.200Z,49.23
2019-05-18T11:23:56.349Z,50.04
2019-05-18T11:26:40.645Z,50.26
2019-05-18T11:29:13.722Z,50.10
2019-05-18T11:32:09.884Z,50.29
2019-05-18T11:35:08.976Z,50.89
2019-05-18T11:37:39.721Z,50.52
2019-05-18T11:40:21.706Z,50.98
2019-05-18T11:45:41.717Z,50.20
2019-05-18T11:48:11.623Z,49.59
2019-05-18T11:50:41.794Z,49.39
2019-05-18T11:53:11.738Z,49.55
2019-05-18T11:55:41.623Z,49.75
2019-05-18T11:58:11.661Z,50.14
2019-05-18T12:00:42.362Z,50.19
2019-05-18T12:03:12.824Z,50.41
2019-05-18T12:05:42.963Z,49.37
2019-05-18T12:08:13.103Z,49.20
2019-05-18T12:10:43.273Z,49.51
2019-05-18T12:13:13.406Z,49.43
2019-05-18T12:15:44.526Z,48.84
2019-05-18T12:18:14.771Z,49.48
2019-05-18T12:20:44.633Z,49.67
2019-05-18T12:23:14.509Z,49.26
2019-05-18T12:25:44.730Z,49.05
2019-05-18T12:28:15.059Z,49.21
2019-05-18T12:30:44.879Z,48.90
2019-05-18T12:33:14.856Z,48.54
2019-05-18T12:35:44.811Z,48.08
2019-05-18T12:38:14.933Z,47.94
2019-05-18T12:40:44.814Z,47.82
2019-05-18T12:43:14.705Z,47.90
2019-05-18T12:45:45.883Z,47.52
2019-05-18T12:48:15.716Z,47.98
2019-05-18T12:50:46.030Z,48.58
2019-05-18T12:53:17.657Z,48.65
2019-05-18T12:55:47.474Z,49.03
2019-05-18T12:58:17.351Z,49.15
2019-05-18T13:00:47.294Z,48.31
2019-05-18T13:03:17.703Z,48.38
2019-05-18T13:05:47.581Z,48.45
2019-05-18T13:08:17.822Z,48.30
2019-05-18T13:10:47.700Z,48.03
2019-05-18T13:13:17.676Z,48.61
2019-05-18T13:15:47.691Z,48.71
2019-05-18T13:18:17.525Z,48.34
2019-05-18T13:20:47.857Z,48.49
2019-05-18T13:23:17.764Z,48.36
2019-05-18T13:25:47.595Z,48.28
2019-05-18T13:28:17.774Z,48.09
2019-05-18T13:30:47.861Z,47.82
2019-05-18T13:33:18.076Z,48.12
2019-05-18T13:35:47.882Z,48.21
2019-05-18T13:38:17.818Z,47.96
2019-05-18T13:40:47.803Z,47.67
2019-05-18T13:43:18.778Z,48.40
2019-05-18T13:45:48.653Z,48.36
2019-05-18T13:48:19.231Z,48.43
2019-05-18T13:50:49.247Z,48.56
2019-05-18T13:53:19.265Z,48.78
2019-05-18T13:55:49.131Z,48.34
2019-05-18T13:58:19.150Z,48.57
2019-05-18T14:00:49.017Z,48.46
2019-05-18T14:03:19.189Z,48.80
2019-05-18T14:05:49.025Z,49.04
2019-05-18T14:08:18.802Z,49.45
2019-05-18T14:10:48.598Z,49.98
2019-05-18T14:13:18.545Z,49.90
2019-05-18T14:15:49.312Z,49.55
2019-05-18T14:18:19.442Z,49.83
2019-05-18T14:20:50.382Z,49.41
2019-05-18T14:23:20.175Z,49.29
2019-05-18T14:25:50.825Z,49.08
2019-05-18T14:28:20.782Z,49.02
2019-05-18T14:30:50.582Z,49.18
2019-05-18T14:33:20.373Z,48.50
2019-05-18T14:35:50.530Z,48.62
2019-05-18T14:38:21.347Z,48.51
2019-05-18T14:40:51.359Z,48.32
2019-05-18T14:43:21.243Z,48.19
2019-05-18T14:45:51.147Z,48.25
2019-05-18T14:48:21.044Z,47.93
2019-05-18T14:50:51.009Z,48.22
2019-05-18T14:53:20.856Z,48.48
2019-05-18T14:55:51.088Z,48.55
2019-05-18T14:58:21.479Z,48.51
2019-05-18T15:00:51.430Z,48.43
2019-05-18T15:03:21.689Z,48.21
2019-05-18T15:05:51.564Z,48.55
2019-05-18T15:08:21.776Z,48.20
2019-05-18T15:10:51.788Z,48.15
2019-05-18T15:13:21.959Z,48.06
2019-05-18T15:15:51.835Z,47.92
2019-05-18T15:18:21.718Z,48.22
2019-05-18T15:20:51.644Z,48.11
2019-05-18T15:23:21.646Z,48.61
2019-05-18T15:25:51.595Z,48.62
2019-05-18T15:28:21.798Z,48.19
2019-05-18T15:30:52.727Z,47.40
2019-05-18T15:33:22.650Z,47.88
2019-05-18T15:35:52.544Z,47.99
2019-05-18T15:38:22.463Z,47.98
2019-05-18T15:40:52.233Z,47.92
2019-05-18T15:43:22.982Z,48.04
2019-05-18T15:45:52.905Z,48.00
2019-05-18T15:48:22.917Z,48.25
2019-05-18T15:50:52.865Z,47.91
2019-05-18T15:53:23.884Z,47.55
2019-05-18T15:56:05.295Z,47.71
2019-05-18T15:58:25.768Z,47.72
2019-05-18T16:00:55.664Z,46.94
2019-05-18T16:03:25.760Z,47.58
2019-05-18T16:05:55.859Z,47.66
2019-05-18T16:08:26.104Z,47.50
2019-05-18T16:10:57.290Z,47.85
2019-05-18T16:13:27.158Z,47.66
2019-05-18T16:15:58.218Z,47.35
2019-05-18T16:18:28.226Z,47.24
2019-05-18T16:20:58.255Z,47.54
2019-05-18T16:23:28.198Z,46.88
2019-05-18T16:25:58.521Z,47.20
2019-05-18T16:28:30.104Z,47.22
2019-05-18T16:31:00.232Z,47.57
2019-05-18T16:33:30.143Z,47.77
2019-05-18T16:36:03.061Z,48.08
2019-05-18T16:38:33.351Z,48.20
2019-05-18T16:41:07.391Z,48.37
2019-05-18T16:43:37.500Z,48.78
2019-05-18T16:46:08.732Z,48.66
2019-05-18T16:48:39.644Z,48.46
2019-05-18T16:51:09.591Z,48.47
2019-05-18T16:53:49.381Z,48.36
2019-05-18T16:56:16.453Z,48.30
2019-05-18T16:58:46.455Z,48.50
2019-05-18T17:01:16.311Z,48.64
2019-05-18T17:03:46.529Z,48.86
2019-05-18T17:06:16.678Z,48.90
2019-05-18T17:08:46.683Z,48.84
2019-05-18T17:11:18.642Z,48.89
2019-05-18T17:13:51.036Z,49.06
2019-05-18T17:16:21.390Z,49.19
2019-05-18T17:18:51.425Z,49.17
2019-05-18T17:21:22.009Z,49.20
2019-05-18T17:23:53.985Z,49.33
2019-05-18T17:26:30.936Z,49.19
2019-05-18T17:29:03.621Z,49.21
2019-05-18T17:31:43.610Z,49.14
2019-05-18T17:34:27.392Z,49.29
2019-05-18T17:36:57.920Z,49.26
2019-05-18T17:39:32.237Z,49.37
2019-05-18T17:42:05.166Z,49.32
2019-05-18T17:44:36.951Z,49.36
2019-05-18T17:47:07.191Z,49.46
2019-05-18T17:50:08.669Z,49.45
2019-05-18T17:52:36.976Z,49.46
2019-05-18T17:55:07.488Z,49.53
2019-05-18T17:57:37.575Z,49.52
2019-05-18T18:00:09.881Z,49.63
2019-05-18T18:02:40.271Z,49.76
2019-05-18T18:05:11.661Z,49.92
2019-05-18T18:07:41.543Z,49.98
2019-05-18T18:10:12.085Z,50.02
2019-05-18T18:13:10.506Z,50.07
2019-05-18T18:15:43.425Z,50.00
2019-05-18T18:18:13.479Z,50.12
2019-05-18T18:20:43.516Z,50.03
2019-05-18T18:23:13.987Z,50.13
2019-05-18T18:25:43.836Z,50.31
2019-05-18T18:28:13.756Z,50.44
2019-05-18T18:30:43.752Z,50.52
2019-05-18T18:33:14.126Z,50.53
2019-05-18T18:35:44.422Z,50.56
2019-05-18T18:38:14.346Z,50.59
2019-05-18T18:40:44.708Z,50.64
2019-05-18T18:43:15.689Z,50.67
2019-05-18T18:45:45.665Z,50.74
2019-05-18T18:48:15.650Z,50.76
2019-05-18T18:50:45.877Z,50.86
2019-05-18T18:53:16.469Z,50.98
2019-05-18T18:55:46.700Z,51.03
2019-05-18T18:58:16.717Z,51.10
2019-05-18T19:00:46.617Z,51.24
2019-05-18T19:03:16.700Z,51.31
2019-05-18T19:05:46.672Z,51.44
2019-05-18T19:08:16.555Z,51.55
2019-05-18T19:10:47.248Z,51.67
2019-05-18T19:13:17.093Z,51.77
2019-05-18T19:15:46.894Z,51.89
2019-05-18T19:18:17.158Z,52.02
2019-05-18T19:20:47.293Z,52.09
2019-05-18T19:23:17.327Z,52.20
2019-05-18T19:25:47.345Z,52.25
2019-05-18T19:28:18.878Z,52.33
2019-05-18T19:30:49.095Z,52.42
2019-05-18T19:33:19.314Z,52.52
2019-05-18T19:35:49.482Z,52.65
2019-05-18T19:38:20.495Z,52.74
2019-05-18T19:40:50.460Z,52.82
2019-05-18T19:43:20.457Z,52.94
2019-05-18T19:45:50.602Z,53.00
2019-05-18T19:48:20.925Z,53.06
2019-05-18T19:50:50.722Z,53.12
2019-05-18T19:53:20.631Z,53.15
2019-05-18T19:55:50.824Z,53.19
2019-05-18T19:58:21.022Z,53.24
2019-05-18T20:00:50.849Z,53.36
2019-05-18T20:03:20.867Z,53.49
2019-05-18T20:05:50.821Z,53.57
2019-05-18T20:08:20.853Z,53.66
2019-05-18T20:10:50.946Z,53.71
2019-05-18T20:13:21.056Z,53.77
2019-05-18T20:15:51.267Z,53.79
2019-05-18T20:18:21.082Z,53.86
2019-05-18T20:20:51.067Z,53.95
2019-05-18T20:23:20.982Z,54.04
2019-05-18T20:25:50.931Z,54.12
2019-05-18T20:28:23.707Z,54.21
2019-05-18T20:30:53.316Z,54.30
2019-05-18T20:33:23.137Z,54.45
2019-05-18T20:35:53.013Z,54.51
2019-05-18T20:38:23.308Z,54.54
2019-05-18T20:40:53.275Z,54.59
2019-05-18T20:43:23.498Z,54.66
2019-05-18T20:45:53.561Z,54.78
2019-05-18T20:48:23.757Z,54.85
2019-05-18T20:50:54.102Z,54.92
2019-05-18T20:53:24.337Z,55.13
2019-05-18T20:55:54.543Z,55.26
2019-05-18T20:58:38.796Z,55.30
2019-05-18T21:00:56.149Z,55.27
2019-05-18T21:03:27.273Z,55.28
2019-05-18T21:05:57.264Z,55.26
2019-05-18T21:08:28.588Z,55.32
2019-05-18T21:10:59.205Z,55.31
2019-05-18T21:13:29.351Z,55.39
2019-05-18T21:15:59.598Z,55.43
2019-05-18T21:18:30.178Z,55.47
2019-05-18T21:21:00.365Z,55.56
2019-05-18T21:23:30.421Z,55.55
2019-05-18T21:26:00.358Z,55.62
2019-05-18T21:28:30.433Z,55.71
2019-05-18T21:31:00.636Z,55.90
2019-05-18T21:33:30.646Z,55.93
2019-05-18T21:36:01.325Z,56.02
2019-05-18T21:38:31.164Z,56.11
2019-05-18T21:41:01.414Z,56.20
2019-05-18T21:43:31.328Z,56.25
2019-05-18T21:46:02.911Z,56.26
2019-05-18T21:48:33.101Z,56.28
2019-05-18T21:51:02.906Z,56.21
2019-05-18T21:53:32.986Z,56.23
2019-05-18T21:56:02.926Z,56.25
2019-05-18T21:58:32.819Z,56.32
2019-05-18T22:01:04.647Z,56.38
2019-05-18T22:03:34.577Z,56.39
2019-05-18T22:06:04.654Z,56.47
2019-05-18T22:08:34.766Z,56.53
2019-05-18T22:11:05.096Z,56.61
2019-05-18T22:13:35.401Z,56.67
2019-05-18T22:16:05.412Z,56.71
2019-05-18T22:18:35.212Z,56.77
2019-05-18T22:21:05.498Z,56.89
2019-05-18T22:23:35.628Z,57.01
2019-05-18T22:26:05.564Z,57.04
2019-05-18T22:28:35.456Z,57.08
2019-05-18T22:31:05.494Z,57.24
2019-05-18T22:33:35.430Z,57.25
2019-05-18T22:36:05.714Z,57.47
2019-05-18T22:38:35.523Z,57.40
2019-05-18T22:41:05.769Z,57.45
2019-05-18T22:43:35.834Z,57.51
2019-05-18T22:46:05.644Z,57.64
2019-05-18T22:48:41.237Z,57.66
2019-05-18T22:51:07.371Z,57.83
2019-05-18T22:53:37.478Z,57.88
2019-05-18T22:56:07.393Z,57.86
2019-05-18T22:58:37.405Z,57.97
2019-05-18T23:01:07.335Z,58.13
2019-05-18T23:03:37.602Z,57.92
2019-05-18T23:06:08.039Z,57.85
2019-05-18T23:08:38.024Z,57.91
2019-05-18T23:11:08.286Z,57.99
2019-05-18T23:13:38.452Z,58.11
2019-05-18T23:16:09.629Z,58.21
2019-05-18T23:18:39.517Z,58.42
2019-05-18T23:21:09.980Z,58.45
2019-05-18T23:23:39.984Z,58.64
2019-05-18T23:26:11.679Z,58.66
2019-05-18T23:28:42.118Z,58.88
2019-05-18T23:31:12.318Z,58.79
2019-05-18T23:33:42.208Z,58.83
2019-05-18T23:36:12.944Z,58.80
2019-05-18T23:38:43.046Z,58.85
2019-05-18T23:41:13.210Z,58.75
2019-05-18T23:43:43.444Z,58.67
2019-05-18T23:46:13.317Z,58.65
2019-05-18T23:48:44.120Z,58.65
2019-05-18T23:51:14.239Z,58.68
2019-05-18T23:53:44.478Z,58.67
2019-05-18T23:56:14.453Z,58.76
2019-05-18T23:58:44.665Z,59.09
